sensor_id;sensor_type;location;lat;lon;timestamp;pressure;altitude;pressure_sealevel;temperature;humidity
9853;BME280;4965;43.238;27.864;2022-08-20T00:01:07;99799.13;;;22.91;100.00
9853;BME280;4965;43.238;27.864;2022-08-20T00:03:36;99807.16;;;22.73;100.00
9853;BME280;4965;43.238;27.864;2022-08-20T00:06:06;99806.06;;;22.81;100.00
9853;BME280;4965;43.238;27.864;2022-08-20T00:08:34;99800.88;;;22.79;100.00
9853;BME280;4965;43.238;27.864;2022-08-20T00:11:04;99801.97;;;22.65;100.00
9853;BME280;4965;43.238;27.864;2022-08-20T00:13:44;99811.50;;;22.67;100.00
9853;BME280;4965;43.238;27.864;2022-08-20T00:16:14;99813.19;;;22.62;100.00
9853;BME280;4965;43.238;27.864;2022-08-20T00:18:41;99812.34;;;22.68;100.00
9853;BME280;4965;43.238;27.864;2022-08-20T00:21:11;99800.09;;;22.72;100.00
9853;BME280;4965;43.238;27.864;2022-08-20T00:23:41;99810.03;;;22.78;100.00
9853;BME280;4965;43.238;27.864;2022-08-20T00:26:09;99793.28;;;22.69;100.00
9853;BME280;4965;43.238;27.864;2022-08-20T00:28:36;99804.63;;;22.78;100.00
9853;BME280;4965;43.238;27.864;2022-08-20T00:31:06;99788.56;;;22.58;100.00
9853;BME280;4965;43.238;27.864;2022-08-20T00:33:35;99795.81;;;22.58;100.00
9853;BME280;4965;43.238;27.864;2022-08-20T00:36:04;99793.38;;;22.50;100.00
9853;BME280;4965;43.238;27.864;2022-08-20T00:38:34;99796.31;;;22.42;100.00
9853;BME280;4965;43.238;27.864;2022-08-20T00:41:01;99788.06;;;22.37;100.00
9853;BME280;4965;43.238;27.864;2022-08-20T00:43:35;99787.81;;;22.45;100.00
9853;BME280;4965;43.238;27.864;2022-08-20T00:46:05;99786.75;;;22.46;100.00
9853;BME280;4965;43.238;27.864;2022-08-20T00:48:37;99784.66;;;22.54;100.00
9853;BME280;4965;43.238;27.864;2022-08-20T00:51:07;99786.56;;;22.47;100.00
9853;BME280;4965;43.238;27.864;2022-08-20T00:53:36;99785.75;;;22.40;100.00
9853;BME280;4965;43.238;27.864;2022-08-20T00:56:04;99777.84;;;22.45;100.00
9853;BME280;4965;43.238;27.864;2022-08-20T00:58:32;99778.63;;;22.52;100.00
9853;BME280;4965;43.238;27.864;2022-08-20T01:00:59;99770.81;;;22.44;100.00
9853;BME280;4965;43.238;27.864;2022-08-20T01:03:26;99770.16;;;22.49;100.00
9853;BME280;4965;43.238;27.864;2022-08-20T01:05:55;99762.91;;;22.49;100.00
9853;BME280;4965;43.238;27.864;2022-08-20T01:08:22;99757.00;;;22.34;100.00
9853;BME280;4965;43.238;27.864;2022-08-20T01:10:52;99766.13;;;22.33;100.00
9853;BME280;4965;43.238;27.864;2022-08-20T01:13:29;99762.72;;;22.44;100.00
9853;BME280;4965;43.238;27.864;2022-08-20T01:15:57;99755.91;;;22.42;100.00
9853;BME280;4965;43.238;27.864;2022-08-20T01:18:26;99763.81;;;22.37;100.00
9853;BME280;4965;43.238;27.864;2022-08-20T01:20:57;99757.72;;;22.48;100.00
9853;BME280;4965;43.238;27.864;2022-08-20T01:23:36;99761.06;;;22.50;100.00
9853;BME280;4965;43.238;27.864;2022-08-20T01:26:08;99758.56;;;22.48;100.00
9853;BME280;4965;43.238;27.864;2022-08-20T01:28:39;99763.56;;;22.45;100.00
9853;BME280;4965;43.238;27.864;2022-08-20T01:31:09;99764.44;;;22.39;100.00
9853;BME280;4965;43.238;27.864;2022-08-20T01:33:36;99755.53;;;22.38;100.00
9853;BME280;4965;43.238;27.864;2022-08-20T01:36:04;99749.66;;;22.48;100.00
9853;BME280;4965;43.238;27.864;2022-08-20T01:38:32;99745.72;;;22.50;100.00
9853;BME280;4965;43.238;27.864;2022-08-20T01:41:18;99749.69;;;22.41;100.00
9853;BME280;4965;43.238;27.864;2022-08-20T01:43:49;99754.91;;;22.36;100.00
9853;BME280;4965;43.238;27.864;2022-08-20T01:46:23;99750.19;;;22.31;100.00
9853;BME280;4965;43.238;27.864;2022-08-20T01:48:52;99756.44;;;22.25;100.00
9853;BME280;4965;43.238;27.864;2022-08-20T01:51:23;99744.91;;;22.12;100.00
9853;BME280;4965;43.238;27.864;2022-08-20T01:53:52;99758.81;;;22.09;100.00
9853;BME280;4965;43.238;27.864;2022-08-20T01:56:23;99767.09;;;22.07;100.00
9853;BME280;4965;43.238;27.864;2022-08-20T01:58:53;99766.56;;;21.72;100.00
9853;BME280;4965;43.238;27.864;2022-08-20T02:01:24;99748.56;;;21.73;100.00
9853;BME280;4965;43.238;27.864;2022-08-20T02:03:52;99763.41;;;21.89;100.00
9853;BME280;4965;43.238;27.864;2022-08-20T02:06:20;99764.25;;;21.82;100.00
9853;BME280;4965;43.238;27.864;2022-08-20T02:08:51;99759.28;;;21.93;100.00
9853;BME280;4965;43.238;27.864;2022-08-20T02:11:20;99754.31;;;21.96;100.00
9853;BME280;4965;43.238;27.864;2022-08-20T02:13:49;99755.09;;;22.03;100.00
9853;BME280;4965;43.238;27.864;2022-08-20T02:16:18;99755.94;;;22.04;100.00
9853;BME280;4965;43.238;27.864;2022-08-20T02:18:48;99754.75;;;21.93;100.00
9853;BME280;4965;43.238;27.864;2022-08-20T02:21:16;99757.19;;;21.95;100.00
9853;BME280;4965;43.238;27.864;2022-08-20T02:23:43;99755.53;;;21.94;100.00
9853;BME280;4965;43.238;27.864;2022-08-20T02:26:09;99753.88;;;21.99;100.00
9853;BME280;4965;43.238;27.864;2022-08-20T02:28:38;99748.94;;;21.96;100.00
9853;BME280;4965;43.238;27.864;2022-08-20T02:31:05;99755.31;;;22.02;100.00
9853;BME280;4965;43.238;27.864;2022-08-20T02:33:34;99745.66;;;21.74;100.00
9853;BME280;4965;43.238;27.864;2022-08-20T02:36:01;99753.47;;;21.82;100.00
9853;BME280;4965;43.238;27.864;2022-08-20T02:38:28;99753.88;;;21.86;100.00
9853;BME280;4965;43.238;27.864;2022-08-20T02:40:55;99751.78;;;22.01;100.00
9853;BME280;4965;43.238;27.864;2022-08-20T02:43:22;99747.69;;;21.92;100.00
9853;BME280;4965;43.238;27.864;2022-08-20T02:45:51;99757.00;;;21.96;100.00
9853;BME280;4965;43.238;27.864;2022-08-20T02:48:20;99743.50;;;22.03;100.00
9853;BME280;4965;43.238;27.864;2022-08-20T02:50:52;99750.78;;;21.96;100.00
9853;BME280;4965;43.238;27.864;2022-08-20T02:53:20;99754.28;;;21.90;100.00
9853;BME280;4965;43.238;27.864;2022-08-20T02:55:48;99746.47;;;21.75;100.00
9853;BME280;4965;43.238;27.864;2022-08-20T02:58:15;99755.78;;;21.79;100.00
9853;BME280;4965;43.238;27.864;2022-08-20T03:00:43;99755.19;;;21.77;100.00
9853;BME280;4965;43.238;27.864;2022-08-20T03:03:11;99756.00;;;21.77;100.00
9853;BME280;4965;43.238;27.864;2022-08-20T03:05:42;99754.75;;;21.80;100.00
9853;BME280;4965;43.238;27.864;2022-08-20T03:08:11;99755.34;;;21.82;100.00
9853;BME280;4965;43.238;27.864;2022-08-20T03:10:40;99759.47;;;21.98;100.00
9853;BME280;4965;43.238;27.864;2022-08-20T03:13:08;99748.53;;;21.93;100.00
9853;BME280;4965;43.238;27.864;2022-08-20T03:15:38;99755.53;;;22.00;100.00
9853;BME280;4965;43.238;27.864;2022-08-20T03:18:05;99761.34;;;21.97;100.00
9853;BME280;4965;43.238;27.864;2022-08-20T03:20:34;99762.19;;;21.91;100.00
9853;BME280;4965;43.238;27.864;2022-08-20T03:23:02;99762.59;;;21.88;100.00
9853;BME280;4965;43.238;27.864;2022-08-20T03:25:29;99763.19;;;21.90;100.00
9853;BME280;4965;43.238;27.864;2022-08-20T03:27:56;99754.28;;;22.03;100.00
9853;BME280;4965;43.238;27.864;2022-08-20T03:30:24;99755.94;;;22.04;100.00
9853;BME280;4965;43.238;27.864;2022-08-20T03:32:53;99751.56;;;22.03;100.00
9853;BME280;4965;43.238;27.864;2022-08-20T03:35:21;99751.34;;;22.11;100.00
9853;BME280;4965;43.238;27.864;2022-08-20T03:37:50;99752.94;;;22.18;100.00
9853;BME280;4965;43.238;27.864;2022-08-20T03:40:21;99754.75;;;22.31;100.00
9853;BME280;4965;43.238;27.864;2022-08-20T03:42:48;99756.13;;;22.40;100.00
9853;BME280;4965;43.238;27.864;2022-08-20T03:45:17;99758.94;;;22.58;100.00
9853;BME280;4965;43.238;27.864;2022-08-20T03:47:44;99758.31;;;22.88;100.00
9853;BME280;4965;43.238;27.864;2022-08-20T03:50:11;99754.31;;;23.40;100.00
9853;BME280;4965;43.238;27.864;2022-08-20T03:52:39;99753.66;;;24.17;100.00
9853;BME280;4965;43.238;27.864;2022-08-20T03:55:08;99749.78;;;24.96;100.00
9853;BME280;4965;43.238;27.864;2022-08-20T03:57:35;99740.84;;;25.42;100.00
9853;BME280;4965;43.238;27.864;2022-08-20T04:00:10;99742.44;;;26.29;100.00
9853;BME280;4965;43.238;27.864;2022-08-20T04:02:38;99745.84;;;26.70;100.00
9853;BME280;4965;43.238;27.864;2022-08-20T04:05:06;99759.69;;;27.02;100.00
9853;BME280;4965;43.238;27.864;2022-08-20T04:07:33;99757.03;;;27.40;100.00
9853;BME280;4965;43.238;27.864;2022-08-20T04:10:04;99751.47;;;28.12;100.00
9853;BME280;4965;43.238;27.864;2022-08-20T04:12:33;99752.84;;;28.36;100.00
9853;BME280;4965;43.238;27.864;2022-08-20T04:15:08;99752.16;;;28.77;100.00
9853;BME280;4965;43.238;27.864;2022-08-20T04:17:36;99759.19;;;29.89;100.00
9853;BME280;4965;43.238;27.864;2022-08-20T04:20:04;99752.84;;;29.73;100.00
9853;BME280;4965;43.238;27.864;2022-08-20T04:22:31;99751.69;;;30.26;100.00
9853;BME280;4965;43.238;27.864;2022-08-20T04:24:58;99751.78;;;30.67;100.00
9853;BME280;4965;43.238;27.864;2022-08-20T04:27:25;99745.25;;;30.88;100.00
9853;BME280;4965;43.238;27.864;2022-08-20T04:29:53;99747.44;;;31.11;100.00
9853;BME280;4965;43.238;27.864;2022-08-20T04:32:20;99754.00;;;31.10;100.00
9853;BME280;4965;43.238;27.864;2022-08-20T04:34:47;99762.63;;;31.78;100.00
9853;BME280;4965;43.238;27.864;2022-08-20T04:37:18;99768.66;;;31.70;100.00
9853;BME280;4965;43.238;27.864;2022-08-20T04:39:46;99759.28;;;31.86;100.00
9853;BME280;4965;43.238;27.864;2022-08-20T04:42:35;99768.75;;;32.19;100.00
9853;BME280;4965;43.238;27.864;2022-08-20T04:45:03;99766.31;;;32.02;100.00
9853;BME280;4965;43.238;27.864;2022-08-20T04:47:31;99768.03;;;31.88;100.00
9853;BME280;4965;43.238;27.864;2022-08-20T04:49:58;99762.38;;;31.64;100.00
9853;BME280;4965;43.238;27.864;2022-08-20T04:52:25;99757.56;;;32.16;100.00
9853;BME280;4965;43.238;27.864;2022-08-20T04:54:52;99767.59;;;32.30;100.00
9853;BME280;4965;43.238;27.864;2022-08-20T04:57:21;99769.78;;;32.72;100.00
9853;BME280;4965;43.238;27.864;2022-08-20T04:59:49;99761.66;;;32.96;100.00
9853;BME280;4965;43.238;27.864;2022-08-20T05:02:17;99763.56;;;32.95;100.00
9853;BME280;4965;43.238;27.864;2022-08-20T05:04:44;99765.50;;;33.29;100.00
9853;BME280;4965;43.238;27.864;2022-08-20T05:07:12;99772.34;;;33.55;100.00
9853;BME280;4965;43.238;27.864;2022-08-20T05:09:40;99768.75;;;33.31;100.00
9853;BME280;4965;43.238;27.864;2022-08-20T05:12:07;99774.19;;;34.31;96.99
9853;BME280;4965;43.238;27.864;2022-08-20T05:14:34;99776.56;;;34.94;96.04
9853;BME280;4965;43.238;27.864;2022-08-20T05:17:02;99763.47;;;34.11;99.37
9853;BME280;4965;43.238;27.864;2022-08-20T05:19:32;99769.13;;;34.19;99.52
9853;BME280;4965;43.238;27.864;2022-08-20T05:22:00;99769.56;;;34.45;98.09
9853;BME280;4965;43.238;27.864;2022-08-20T05:24:27;99782.47;;;34.26;98.21
9853;BME280;4965;43.238;27.864;2022-08-20T05:26:54;99789.66;;;33.22;100.00
9853;BME280;4965;43.238;27.864;2022-08-20T05:29:21;99790.03;;;32.71;100.00
9853;BME280;4965;43.238;27.864;2022-08-20T05:31:49;99776.38;;;33.05;100.00
9853;BME280;4965;43.238;27.864;2022-08-20T05:34:16;99775.06;;;33.31;100.00
9853;BME280;4965;43.238;27.864;2022-08-20T05:36:45;99769.50;;;33.65;100.00
9853;BME280;4965;43.238;27.864;2022-08-20T05:39:14;99767.66;;;34.03;100.00
9853;BME280;4965;43.238;27.864;2022-08-20T05:41:41;99763.38;;;34.21;99.58
9853;BME280;4965;43.238;27.864;2022-08-20T05:44:09;99765.66;;;33.90;100.00
9853;BME280;4965;43.238;27.864;2022-08-20T05:46:39;99760.59;;;33.26;100.00
9853;BME280;4965;43.238;27.864;2022-08-20T05:49:06;99748.91;;;33.44;100.00
9853;BME280;4965;43.238;27.864;2022-08-20T05:51:33;99754.03;;;33.22;100.00
9853;BME280;4965;43.238;27.864;2022-08-20T05:54:03;99751.28;;;32.54;100.00
9853;BME280;4965;43.238;27.864;2022-08-20T05:56:30;99746.59;;;32.16;100.00
9853;BME280;4965;43.238;27.864;2022-08-20T05:58:59;99749.22;;;31.77;100.00
9853;BME280;4965;43.238;27.864;2022-08-20T06:01:28;99747.09;;;31.58;100.00
9853;BME280;4965;43.238;27.864;2022-08-20T06:03:55;99740.75;;;31.78;100.00
9853;BME280;4965;43.238;27.864;2022-08-20T06:06:36;99753.47;;;32.08;100.00
9853;BME280;4965;43.238;27.864;2022-08-20T06:09:04;99744.41;;;32.62;100.00
9853;BME280;4965;43.238;27.864;2022-08-20T06:11:31;99744.97;;;32.58;100.00
9853;BME280;4965;43.238;27.864;2022-08-20T06:13:58;99735.00;;;32.78;100.00
9853;BME280;4965;43.238;27.864;2022-08-20T06:16:26;99729.63;;;32.96;100.00
9853;BME280;4965;43.238;27.864;2022-08-20T06:18:53;99737.38;;;32.84;100.00
9853;BME280;4965;43.238;27.864;2022-08-20T06:21:20;99739.66;;;32.77;100.00
9853;BME280;4965;43.238;27.864;2022-08-20T06:23:47;99744.44;;;33.24;100.00
9853;BME280;4965;43.238;27.864;2022-08-20T06:26:15;99740.19;;;33.13;100.00
9853;BME280;4965;43.238;27.864;2022-08-20T06:28:42;99745.31;;;33.20;100.00
9853;BME280;4965;43.238;27.864;2022-08-20T06:31:09;99739.50;;;32.92;100.00
9853;BME280;4965;43.238;27.864;2022-08-20T06:33:36;99749.19;;;33.14;100.00
9853;BME280;4965;43.238;27.864;2022-08-20T06:36:03;99756.63;;;33.37;100.00
9853;BME280;4965;43.238;27.864;2022-08-20T06:38:31;99748.28;;;33.52;100.00
9853;BME280;4965;43.238;27.864;2022-08-20T06:40:58;99760.34;;;33.51;100.00
9853;BME280;4965;43.238;27.864;2022-08-20T06:43:27;99759.13;;;33.04;100.00
9853;BME280;4965;43.238;27.864;2022-08-20T06:45:54;99751.97;;;33.37;100.00
9853;BME280;4965;43.238;27.864;2022-08-20T06:48:22;99754.97;;;33.12;100.00
9853;BME280;4965;43.238;27.864;2022-08-20T06:50:49;99760.31;;;33.27;100.00
9853;BME280;4965;43.238;27.864;2022-08-20T06:53:33;99753.25;;;33.45;100.00
9853;BME280;4965;43.238;27.864;2022-08-20T06:56:00;99758.69;;;33.21;100.00
9853;BME280;4965;43.238;27.864;2022-08-20T06:58:29;99756.88;;;33.12;100.00
9853;BME280;4965;43.238;27.864;2022-08-20T07:00:57;99749.78;;;32.33;100.00
9853;BME280;4965;43.238;27.864;2022-08-20T07:03:24;99758.88;;;32.67;100.00
9853;BME280;4965;43.238;27.864;2022-08-20T07:05:51;99757.53;;;32.59;100.00
9853;BME280;4965;43.238;27.864;2022-08-20T07:08:18;99753.97;;;32.64;100.00
9853;BME280;4965;43.238;27.864;2022-08-20T07:10:46;99750.94;;;32.22;100.00
9853;BME280;4965;43.238;27.864;2022-08-20T07:13:13;99753.03;;;32.40;100.00
9853;BME280;4965;43.238;27.864;2022-08-20T07:15:43;99754.00;;;32.10;100.00
9853;BME280;4965;43.238;27.864;2022-08-20T07:18:11;99754.75;;;32.26;100.00
9853;BME280;4965;43.238;27.864;2022-08-20T07:20:40;99752.06;;;32.16;100.00
9853;BME280;4965;43.238;27.864;2022-08-20T07:23:07;99751.00;;;32.61;100.00
9853;BME280;4965;43.238;27.864;2022-08-20T07:25:37;99751.06;;;32.45;97.44
9853;BME280;4965;43.238;27.864;2022-08-20T07:28:06;99750.22;;;32.50;100.00
9853;BME280;4965;43.238;27.864;2022-08-20T07:30:35;99749.94;;;32.51;99.27
9853;BME280;4965;43.238;27.864;2022-08-20T07:33:20;99750.94;;;32.71;100.00
9853;BME280;4965;43.238;27.864;2022-08-20T07:35:47;99739.41;;;33.02;98.06
9853;BME280;4965;43.238;27.864;2022-08-20T07:38:19;99728.47;;;32.25;100.00
9853;BME280;4965;43.238;27.864;2022-08-20T07:40:49;99748.91;;;32.42;100.00
9853;BME280;4965;43.238;27.864;2022-08-20T07:43:16;99748.91;;;32.42;100.00
9853;BME280;4965;43.238;27.864;2022-08-20T07:45:43;99746.88;;;32.63;100.00
9853;BME280;4965;43.238;27.864;2022-08-20T07:48:12;99739.53;;;32.04;100.00
9853;BME280;4965;43.238;27.864;2022-08-20T07:50:41;99735.09;;;32.19;100.00
9853;BME280;4965;43.238;27.864;2022-08-20T07:53:08;99740.38;;;31.95;98.67
9853;BME280;4965;43.238;27.864;2022-08-20T07:55:36;99735.06;;;32.24;98.17
9853;BME280;4965;43.238;27.864;2022-08-20T07:58:08;99737.84;;;32.19;99.72
9853;BME280;4965;43.238;27.864;2022-08-20T08:00:36;99737.41;;;31.86;98.47
9853;BME280;4965;43.238;27.864;2022-08-20T08:03:04;99743.63;;;32.02;98.51
9853;BME280;4965;43.238;27.864;2022-08-20T08:05:32;99746.34;;;32.61;96.15
9853;BME280;4965;43.238;27.864;2022-08-20T08:08:03;99741.97;;;32.06;98.57
9853;BME280;4965;43.238;27.864;2022-08-20T08:10:31;99740.34;;;32.10;96.22
9853;BME280;4965;43.238;27.864;2022-08-20T08:13:02;99741.13;;;32.16;94.87
9853;BME280;4965;43.238;27.864;2022-08-20T08:15:32;99743.31;;;32.13;98.15
9853;BME280;4965;43.238;27.864;2022-08-20T08:18:06;99738.59;;;32.29;98.11
9853;BME280;4965;43.238;27.864;2022-08-20T08:20:35;99736.66;;;32.30;95.80
9853;BME280;4965;43.238;27.864;2022-08-20T08:23:07;99733.25;;;32.04;97.79
9853;BME280;4965;43.238;27.864;2022-08-20T08:25:36;99721.75;;;32.02;97.20
9853;BME280;4965;43.238;27.864;2022-08-20T08:28:03;99722.59;;;32.07;96.43
9853;BME280;4965;43.238;27.864;2022-08-20T08:30:31;99726.31;;;32.22;96.32
9853;BME280;4965;43.238;27.864;2022-08-20T08:32:58;99708.06;;;32.02;98.63
9853;BME280;4965;43.238;27.864;2022-08-20T08:35:42;99717.53;;;32.25;97.80
9853;BME280;4965;43.238;27.864;2022-08-20T08:38:12;99720.25;;;32.30;99.45
9853;BME280;4965;43.238;27.864;2022-08-20T08:40:39;99716.34;;;31.87;100.00
9853;BME280;4965;43.238;27.864;2022-08-20T08:43:09;99694.63;;;31.61;100.00
9853;BME280;4965;43.238;27.864;2022-08-20T08:45:40;99698.88;;;31.83;98.40
9853;BME280;4965;43.238;27.864;2022-08-20T08:48:11;99710.81;;;32.02;99.30
9853;BME280;4965;43.238;27.864;2022-08-20T08:50:39;99682.72;;;30.92;100.00
9853;BME280;4965;43.238;27.864;2022-08-20T08:53:12;99706.81;;;31.79;100.00
9853;BME280;4965;43.238;27.864;2022-08-20T08:55:43;99710.16;;;31.71;100.00
9853;BME280;4965;43.238;27.864;2022-08-20T08:58:10;99717.38;;;32.11;100.00
9853;BME280;4965;43.238;27.864;2022-08-20T09:00:39;99698.94;;;31.78;98.92
9853;BME280;4965;43.238;27.864;2022-08-20T09:03:08;99714.91;;;31.30;100.00
9853;BME280;4965;43.238;27.864;2022-08-20T09:05:40;99705.09;;;31.09;100.00
9853;BME280;4965;43.238;27.864;2022-08-20T09:08:12;99726.16;;;31.08;100.00
9853;BME280;4965;43.238;27.864;2022-08-20T09:10:42;99713.03;;;30.55;100.00
9853;BME280;4965;43.238;27.864;2022-08-20T09:13:09;99698.84;;;30.78;100.00
9853;BME280;4965;43.238;27.864;2022-08-20T09:15:37;99732.66;;;31.33;100.00
9853;BME280;4965;43.238;27.864;2022-08-20T09:18:04;99730.50;;;30.79;100.00
9853;BME280;4965;43.238;27.864;2022-08-20T09:20:31;99719.47;;;30.13;100.00
9853;BME280;4965;43.238;27.864;2022-08-20T09:22:58;99705.28;;;30.01;100.00
9853;BME280;4965;43.238;27.864;2022-08-20T09:25:24;99726.41;;;30.56;100.00
9853;BME280;4965;43.238;27.864;2022-08-20T09:27:53;99722.59;;;30.72;100.00
9853;BME280;4965;43.238;27.864;2022-08-20T09:30:20;99704.56;;;30.51;100.00
9853;BME280;4965;43.238;27.864;2022-08-20T09:32:47;99694.97;;;30.18;100.00
9853;BME280;4965;43.238;27.864;2022-08-20T09:35:14;99694.38;;;29.96;100.00
9853;BME280;4965;43.238;27.864;2022-08-20T09:37:41;99713.81;;;30.35;100.00
9853;BME280;4965;43.238;27.864;2022-08-20T09:40:09;99701.53;;;30.38;100.00
9853;BME280;4965;43.238;27.864;2022-08-20T09:42:37;99696.66;;;30.60;100.00
9853;BME280;4965;43.238;27.864;2022-08-20T09:45:06;99682.72;;;30.31;100.00
9853;BME280;4965;43.238;27.864;2022-08-20T09:47:34;99710.59;;;30.58;100.00
9853;BME280;4965;43.238;27.864;2022-08-20T09:50:01;99672.09;;;30.60;100.00
9853;BME280;4965;43.238;27.864;2022-08-20T09:52:30;99701.56;;;30.88;100.00
9853;BME280;4965;43.238;27.864;2022-08-20T09:54:59;99704.31;;;30.68;100.00
9853;BME280;4965;43.238;27.864;2022-08-20T09:57:28;99701.28;;;30.44;100.00
9853;BME280;4965;43.238;27.864;2022-08-20T09:59:59;99702.94;;;30.50;100.00
9853;BME280;4965;43.238;27.864;2022-08-20T10:02:28;99692.81;;;30.31;100.00
9853;BME280;4965;43.238;27.864;2022-08-20T10:04:55;99696.41;;;30.56;100.00
9853;BME280;4965;43.238;27.864;2022-08-20T10:07:22;99684.34;;;30.37;100.00
9853;BME280;4965;43.238;27.864;2022-08-20T10:09:49;99692.22;;;30.18;100.00
9853;BME280;4965;43.238;27.864;2022-08-20T10:12:16;99690.03;;;30.05;100.00
9853;BME280;4965;43.238;27.864;2022-08-20T10:14:42;99680.28;;;30.75;100.00
9853;BME280;4965;43.238;27.864;2022-08-20T10:17:09;99691.72;;;30.42;100.00
9853;BME280;4965;43.238;27.864;2022-08-20T10:19:38;99683.53;;;30.37;100.00
9853;BME280;4965;43.238;27.864;2022-08-20T10:22:05;99681.88;;;30.20;100.00
9853;BME280;4965;43.238;27.864;2022-08-20T10:24:31;99689.53;;;30.39;100.00
9853;BME280;4965;43.238;27.864;2022-08-20T10:26:59;99688.19;;;30.31;100.00
9853;BME280;4965;43.238;27.864;2022-08-20T10:29:28;99692.69;;;29.90;100.00
9853;BME280;4965;43.238;27.864;2022-08-20T10:31:55;99691.25;;;29.77;100.00
9853;BME280;4965;43.238;27.864;2022-08-20T10:34:23;99686.63;;;29.78;100.00
9853;BME280;4965;43.238;27.864;2022-08-20T10:36:51;99678.47;;;29.78;100.00
9853;BME280;4965;43.238;27.864;2022-08-20T10:39:18;99678.31;;;30.10;100.00
9853;BME280;4965;43.238;27.864;2022-08-20T10:41:45;99680.66;;;29.76;100.00
9853;BME280;4965;43.238;27.864;2022-08-20T10:44:12;99678.56;;;30.08;100.00
9853;BME280;4965;43.238;27.864;2022-08-20T10:46:42;99688.34;;;29.89;100.00
9853;BME280;4965;43.238;27.864;2022-08-20T10:49:10;99689.34;;;29.68;100.00
9853;BME280;4965;43.238;27.864;2022-08-20T10:51:37;99684.41;;;29.70;100.00
9853;BME280;4965;43.238;27.864;2022-08-20T10:54:05;99673.84;;;29.78;100.00
9853;BME280;4965;43.238;27.864;2022-08-20T10:56:32;99700.91;;;29.95;100.00
9853;BME280;4965;43.238;27.864;2022-08-20T10:58:59;99696.03;;;30.07;100.00
9853;BME280;4965;43.238;27.864;2022-08-20T11:01:26;99692.56;;;29.60;100.00
9853;BME280;4965;43.238;27.864;2022-08-20T11:03:53;99695.19;;;29.40;100.00
9853;BME280;4965;43.238;27.864;2022-08-20T11:06:20;99695.25;;;29.50;100.00
9853;BME280;4965;43.238;27.864;2022-08-20T11:08:47;99684.09;;;29.46;100.00
9853;BME280;4965;43.238;27.864;2022-08-20T11:11:15;99692.56;;;29.60;100.00
9853;BME280;4965;43.238;27.864;2022-08-20T11:13:42;99690.03;;;29.38;100.00
9853;BME280;4965;43.238;27.864;2022-08-20T11:16:09;99676.25;;;29.70;100.00
9853;BME280;4965;43.238;27.864;2022-08-20T11:18:36;99671.63;;;29.65;100.00
9853;BME280;4965;43.238;27.864;2022-08-20T11:21:03;99681.69;;;29.70;100.00
9853;BME280;4965;43.238;27.864;2022-08-20T11:23:30;99668.47;;;29.99;100.00
9853;BME280;4965;43.238;27.864;2022-08-20T11:25:58;99674.78;;;30.04;100.00
9853;BME280;4965;43.238;27.864;2022-08-20T11:28:26;99676.91;;;29.87;100.00
9853;BME280;4965;43.238;27.864;2022-08-20T11:30:55;99671.38;;;29.72;100.00
9853;BME280;4965;43.238;27.864;2022-08-20T11:33:22;99663.28;;;29.87;100.00
9853;BME280;4965;43.238;27.864;2022-08-20T11:35:49;99661.13;;;30.09;100.00
9853;BME280;4965;43.238;27.864;2022-08-20T11:38:16;99661.41;;;30.08;100.00
9853;BME280;4965;43.238;27.864;2022-08-20T11:40:44;99654.91;;;29.47;100.00
9853;BME280;4965;43.238;27.864;2022-08-20T11:43:11;99680.59;;;29.66;100.00
9853;BME280;4965;43.238;27.864;2022-08-20T11:45:40;99656.91;;;29.66;100.00
9853;BME280;4965;43.238;27.864;2022-08-20T11:48:07;99656.66;;;29.78;100.00
9853;BME280;4965;43.238;27.864;2022-08-20T11:50:33;99666.47;;;29.74;100.00
9853;BME280;4965;43.238;27.864;2022-08-20T11:53:00;99649.94;;;30.01;100.00
9853;BME280;4965;43.238;27.864;2022-08-20T11:55:28;99655.56;;;29.69;100.00
9853;BME280;4965;43.238;27.864;2022-08-20T11:57:55;99641.88;;;29.49;100.00
9853;BME280;4965;43.238;27.864;2022-08-20T12:00:23;99648.81;;;29.87;100.00
9853;BME280;4965;43.238;27.864;2022-08-20T12:02:52;99654.28;;;29.92;100.00
9853;BME280;4965;43.238;27.864;2022-08-20T12:05:19;99633.75;;;29.74;100.00
9853;BME280;4965;43.238;27.864;2022-08-20T12:07:46;99640.66;;;29.87;100.00
9853;BME280;4965;43.238;27.864;2022-08-20T12:10:13;99648.00;;;29.86;100.00
9853;BME280;4965;43.238;27.864;2022-08-20T12:12:40;99642.75;;;29.69;100.00
9853;BME280;4965;43.238;27.864;2022-08-20T12:15:09;99650.63;;;29.66;100.00
9853;BME280;4965;43.238;27.864;2022-08-20T12:17:37;99635.00;;;29.31;100.00
9853;BME280;4965;43.238;27.864;2022-08-20T12:20:09;99635.78;;;29.31;100.00
9853;BME280;4965;43.238;27.864;2022-08-20T12:22:36;99641.13;;;29.11;100.00
9853;BME280;4965;43.238;27.864;2022-08-20T12:25:04;99643.19;;;29.41;100.00
9853;BME280;4965;43.238;27.864;2022-08-20T12:27:34;99647.06;;;29.50;100.00
9853;BME280;4965;43.238;27.864;2022-08-20T12:30:05;99642.94;;;29.43;100.00
9853;BME280;4965;43.238;27.864;2022-08-20T12:32:32;99631.38;;;29.25;100.00
9853;BME280;4965;43.238;27.864;2022-08-20T12:34:59;99630.91;;;29.33;100.00
9853;BME280;4965;43.238;27.864;2022-08-20T12:37:29;99633.81;;;29.22;100.00
9853;BME280;4965;43.238;27.864;2022-08-20T12:39:58;99645.88;;;29.31;100.00
9853;BME280;4965;43.238;27.864;2022-08-20T12:42:26;99630.13;;;29.38;100.00
9853;BME280;4965;43.238;27.864;2022-08-20T12:44:53;99636.91;;;29.30;100.00
9853;BME280;4965;43.238;27.864;2022-08-20T12:47:22;99638.38;;;29.06;100.00
9853;BME280;4965;43.238;27.864;2022-08-20T12:49:51;99630.94;;;28.92;100.00
9853;BME280;4965;43.238;27.864;2022-08-20T12:52:20;99634.50;;;28.97;100.00
9853;BME280;4965;43.238;27.864;2022-08-20T12:54:50;99623.97;;;29.11;100.00
9853;BME280;4965;43.238;27.864;2022-08-20T12:57:22;99627.03;;;29.24;100.00
9853;BME280;4965;43.238;27.864;2022-08-20T12:59:49;99626.28;;;28.87;100.00
9853;BME280;4965;43.238;27.864;2022-08-20T13:02:16;99629.44;;;28.69;100.00
9853;BME280;4965;43.238;27.864;2022-08-20T13:04:43;99615.84;;;28.69;100.00
9853;BME280;4965;43.238;27.864;2022-08-20T13:07:11;99613.13;;;28.74;100.00
9853;BME280;4965;43.238;27.864;2022-08-20T13:09:39;99620.31;;;28.90;100.00